Ortley Beach, New Jersey
Current Conditions -  °F | °C
As of 8:35 PM on Wednesday 26 Nov 2014 (Local Time) from KMJX Reporting Station
Overcast Overcast  
Wind Chill: 32°   Ceiling: 800
Heat Index: 36°   Visibility: 5mi
Dew Point: 34°   Wind: 5mph
Humidity: 93%   Direction: 330°NNW
Pressure: 29.82"   Gusts: NA
Location:  39.9485°N, 74.0761°W
Report Text: KMJX 270135Z AUTO 33004KT 5SM BKN008 OVC015 02/01 A2982 RMK AO1
Loading
Personal Weather Stations






























Interactive Weather Map New forecast layout! Learn more

10-Day Weather Forecast

Advertisements
Track Severe Weather on mobile